• Join FlightAware (Why Join?)
  • Login
  • US Flag 
12:00PM EDT


 

Airport Tracker/Info


-or-


 

Live Flight TrackerFlight Track Log ✈ UAL1006 ✈ 06-Jun-2013 ✈ SKBO / BOG - KIAH

Flight Track Log - Related Links

Times and Time Zones

All times are in EDT time to prevent confusion due to time zone crossing. See the UAL1006 flight status page for this flight to view local times or setup timezone preferences in your user account.

Time Position Orientation Groundspeed Altitude Reporting Facility
EDT Latitude Longitude Course Direction KTS MPH feet Rate Location/Type
01:45AM 5.0675 -74.4170 324° Northwest  Level FlightAware Approximate
01:46AM 5.1589 -74.4845 324° Northwest  Level FlightAware Approximate
01:47AM 5.2504 -74.5521 324° Northwest  Level FlightAware Approximate
01:48AM 5.3418 -74.6197 324° Northwest  Level FlightAware Approximate
01:49AM 5.4333 -74.6873 324° Northwest  Level FlightAware Approximate
01:50AM 5.5247 -74.7549 324° Northwest  Level FlightAware Approximate
01:51AM 5.6161 -74.8226 324° Northwest  Level FlightAware Approximate
01:52AM 5.7075 -74.8902 324° Northwest  Level FlightAware Approximate
01:53AM 5.7989 -74.9579 324° Northwest  Level FlightAware Approximate
01:54AM 5.8903 -75.0256 324° Northwest  Level FlightAware Approximate
01:55AM 5.9817 -75.0934 324° Northwest  Level FlightAware Approximate
01:56AM 6.0731 -75.1611 324° Northwest  Level FlightAware Approximate
01:57AM 6.1645 -75.2289 324° Northwest  Level FlightAware Approximate
01:58AM 6.2558 -75.2967 324° Northwest  Level FlightAware Approximate
01:59AM 6.3472 -75.3646 324° Northwest  Level FlightAware Approximate
02:00AM 6.4305 -75.4275 323° Northwest  Level FlightAware Approximate
02:01AM 6.5213 -75.4961 323° Northwest  Level FlightAware Approximate
02:02AM 6.6120 -75.5648 323° Northwest  Level FlightAware Approximate
02:03AM 6.7028 -75.6335 323° Northwest  Level FlightAware Approximate
02:04AM 6.7935 -75.7022 323° Northwest  Level FlightAware Approximate
02:05AM 6.8843 -75.7710 323° Northwest  Level FlightAware Approximate
02:06AM 6.9750 -75.8397 323° Northwest  Level FlightAware Approximate
02:07AM 7.0657 -75.9085 323° Northwest  Level FlightAware Approximate
02:08AM 7.1564 -75.9773 323° Northwest  Level FlightAware Approximate
02:09AM 7.2471 -76.0462 323° Northwest  Level FlightAware Approximate
02:10AM 7.3378 -76.1151 323° Northwest  Level FlightAware Approximate
02:11AM 7.4285 -76.1840 323° Northwest  Level FlightAware Approximate
02:12AM 7.5191 -76.2529 323° Northwest  Level FlightAware Approximate
02:13AM 7.6098 -76.3218 323° Northwest  Level FlightAware Approximate
02:14AM 7.7004 -76.3908 323° Northwest  Level FlightAware Approximate
02:15AM 7.7910 -76.4598 323° Northwest  Level FlightAware Approximate
02:16AM 7.8824 -76.5279 324° Northwest  Level FlightAware Approximate
02:17AM 7.9739 -76.5958 324° Northwest  Level FlightAware Approximate
02:18AM 8.0653 -76.6638 324° Northwest  Level FlightAware Approximate
02:19AM 8.1607 -76.7348 324° Northwest  Level FlightAware Approximate
02:20AM 8.2561 -76.8058 324° Northwest  Level FlightAware Approximate
02:21AM 8.3515 -76.8769 324° Northwest  Level FlightAware Approximate
02:22AM 8.4469 -76.9480 324° Northwest  Level FlightAware Approximate
02:23AM 8.5422 -77.0193 323° Northwest  Level FlightAware Approximate
02:24AM 8.6371 -77.0910 323° Northwest  Level FlightAware Approximate
02:25AM 8.7320 -77.1628 323° Northwest  Level FlightAware Approximate
02:26AM 8.8270 -77.2346 323° Northwest  Level FlightAware Approximate
02:27AM 8.9219 -77.3064 323° Northwest  Level FlightAware Approximate
02:28AM 9.0167 -77.3783 323° Northwest  Level FlightAware Approximate
02:29AM 9.1116 -77.4502 323° Northwest  Level FlightAware Approximate
02:30AM 9.2065 -77.5222 323° Northwest  Level FlightAware Approximate
02:31AM 9.3013 -77.5942 323° Northwest  Level FlightAware Approximate
02:32AM 9.3961 -77.6662 323° Northwest  Level FlightAware Approximate
02:33AM 9.4909 -77.7383 323° Northwest  Level FlightAware Approximate
02:34AM 9.5857 -77.8104 323° Northwest  Level FlightAware Approximate
02:35AM 9.6805 -77.8826 323° Northwest  Level FlightAware Approximate
02:36AM 9.7753 -77.9548 323° Northwest  Level FlightAware Approximate
02:37AM 9.8701 -78.0270 323° Northwest  Level FlightAware Approximate
02:38AM 9.9648 -78.0993 323° Northwest  Level FlightAware Approximate
02:39AM 10.0595 -78.1716 323° Northwest  Level FlightAware Approximate
02:40AM 10.1542 -78.2440 323° Northwest  Level FlightAware Approximate
02:41AM 10.2489 -78.3164 323° Northwest  Level FlightAware Approximate
02:42AM 10.3436 -78.3888 323° Northwest  Level FlightAware Approximate
02:43AM 10.4383 -78.4613 323° Northwest  Level FlightAware Approximate
02:44AM 10.5329 -78.5339 323° Northwest  Level FlightAware Approximate
02:45AM 10.6275 -78.6065 323° Northwest  Level FlightAware Approximate
02:46AM 10.7221 -78.6791 323° Northwest  Level FlightAware Approximate
02:47AM 10.8167 -78.7517 323° Northwest  Level FlightAware Approximate
02:48AM 10.9113 -78.8245 323° Northwest  Level FlightAware Approximate
02:49AM 11.0059 -78.8972 323° Northwest  Level FlightAware Approximate
02:50AM 11.1004 -78.9700 323° Northwest  Level FlightAware Approximate
02:51AM 11.1949 -79.0429 323° Northwest  Level FlightAware Approximate
02:52AM 11.2894 -79.1158 323° Northwest  Level FlightAware Approximate
02:53AM 11.3839 -79.1888 323° Northwest  Level FlightAware Approximate
02:54AM 11.4784 -79.2618 323° Northwest  Level FlightAware Approximate
02:55AM 11.5729 -79.3348 323° Northwest  Level FlightAware Approximate
02:56AM 11.6673 -79.4079 323° Northwest  Level FlightAware Approximate
02:57AM 11.7617 -79.4811 323° Northwest  Level FlightAware Approximate
02:58AM 11.8561 -79.5543 323° Northwest  Level FlightAware Approximate
02:59AM 11.9505 -79.6275 323° Northwest  Level FlightAware Approximate
03:00AM 12.0448 -79.7008 323° Northwest  Level FlightAware Approximate
03:01AM 12.1392 -79.7742 323° Northwest  Level FlightAware Approximate
03:02AM 12.2335 -79.8476 323° Northwest  Level FlightAware Approximate
03:03AM 12.3278 -79.9210 323° Northwest  Level FlightAware Approximate
03:04AM 12.4221 -79.9945 323° Northwest  Level FlightAware Approximate
03:05AM 12.5163 -80.0681 323° Northwest  Level FlightAware Approximate
03:06AM 12.6106 -80.1417 323° Northwest  Level FlightAware Approximate
03:07AM 12.7048 -80.2154 323° Northwest  Level FlightAware Approximate
03:08AM 12.7990 -80.2891 323° Northwest  Level FlightAware Approximate
03:09AM 12.8932 -80.3629 323° Northwest  Level FlightAware Approximate
03:10AM 12.9873 -80.4367 323° Northwest  Level FlightAware Approximate
03:11AM 13.0815 -80.5106 323° Northwest  Level FlightAware Approximate
03:12AM 13.1756 -80.5846 323° Northwest  Level FlightAware Approximate
03:13AM 13.2697 -80.6586 323° Northwest  Level FlightAware Approximate
03:14AM 13.3638 -80.7327 323° Northwest  Level FlightAware Approximate
03:15AM 13.4578 -80.8068 323° Northwest  Level FlightAware Approximate
03:16AM 13.5519 -80.8810 323° Northwest  Level FlightAware Approximate
03:17AM 13.6459 -80.9552 323° Northwest  Level FlightAware Approximate
03:18AM 13.7399 -81.0295 322° Northwest  Level FlightAware Approximate
03:19AM 13.8338 -81.1039 322° Northwest  Level FlightAware Approximate
03:20AM 13.9278 -81.1783 322° Northwest  Level FlightAware Approximate
03:21AM 14.0217 -81.2527 322° Northwest  Level FlightAware Approximate
03:22AM 14.1156 -81.3273 322° Northwest  Level FlightAware Approximate
03:23AM 14.2095 -81.4019 322° Northwest  Level FlightAware Approximate
03:24AM 14.3033 -81.4765 322° Northwest  Level FlightAware Approximate
03:25AM 14.3972 -81.5513 322° Northwest  Level FlightAware Approximate
03:26AM 14.4910 -81.6261 322° Northwest  Level FlightAware Approximate
03:27AM 14.5847 -81.7009 322° Northwest  Level FlightAware Approximate
03:28AM 14.6785 -81.7758 322° Northwest  Level FlightAware Approximate
03:29AM 14.7722 -81.8508 322° Northwest  Level FlightAware Approximate
03:30AM 14.8659 -81.9258 322° Northwest  Level FlightAware Approximate
03:31AM 14.9596 -82.0010 322° Northwest  Level FlightAware Approximate
03:32AM 15.0520 -82.0778 320° Northwest  Level FlightAware Approximate
03:33AM 15.1433 -82.1561 320° Northwest  Level FlightAware Approximate
03:34AM 15.2346 -82.2344 322° Northwest  Level FlightAware Approximate
03:35AM 15.3284 -82.3095 322° Northwest  Level FlightAware Approximate
03:36AM 15.4221 -82.3848 322° Northwest  Level FlightAware Approximate
03:37AM 15.5157 -82.4601 322° Northwest  Level FlightAware Approximate
03:38AM 15.6094 -82.5355 322° Northwest  Level FlightAware Approximate
03:39AM 15.7030 -82.6109 322° Northwest  Level FlightAware Approximate
03:40AM 15.7966 -82.6864 322° Northwest  Level FlightAware Approximate
03:41AM 15.8902 -82.7620 322° Northwest  Level FlightAware Approximate
03:42AM 15.9838 -82.8376 322° Northwest  Level FlightAware Approximate
03:43AM 16.0773 -82.9134 322° Northwest  Level FlightAware Approximate
03:44AM 16.1708 -82.9892 322° Northwest  Level FlightAware Approximate
03:45AM 16.2643 -83.0650 322° Northwest  Level FlightAware Approximate
03:46AM 16.3577 -83.1410 322° Northwest  Level FlightAware Approximate
03:47AM 16.4512 -83.2170 322° Northwest  Level FlightAware Approximate
03:48AM 16.5446 -83.2931 322° Northwest  Level FlightAware Approximate
03:49AM 16.6366 -83.3681 322° Northwest  Level FlightAware Approximate
03:50AM 16.7286 -83.4433 322° Northwest  Level FlightAware Approximate
03:51AM 16.8206 -83.5185 322° Northwest  Level FlightAware Approximate
03:52AM 16.9125 -83.5938 322° Northwest  Level FlightAware Approximate
03:53AM 17.0044 -83.6691 322° Northwest  Level FlightAware Approximate
03:54AM 17.0963 -83.7446 322° Northwest  Level FlightAware Approximate
03:55AM 17.1882 -83.8201 322° Northwest  Level FlightAware Approximate
03:56AM 17.2800 -83.8956 322° Northwest  Level FlightAware Approximate
03:57AM 17.3718 -83.9713 322° Northwest  Level FlightAware Approximate
03:58AM 17.4636 -84.0470 322° Northwest  Level FlightAware Approximate
03:59AM 17.5553 -84.1228 322° Northwest  Level FlightAware Approximate
04:00AM 17.6470 -84.1987 322° Northwest  Level FlightAware Approximate
04:01AM 17.7387 -84.2747 322° Northwest  Level FlightAware Approximate
04:02AM 17.8304 -84.3507 322° Northwest  Level FlightAware Approximate
04:03AM 17.9220 -84.4268 322° Northwest  Level FlightAware Approximate
04:04AM 18.0136 -84.5030 322° Northwest  Level FlightAware Approximate
04:05AM 18.1052 -84.5793 322° Northwest  Level FlightAware Approximate
04:06AM 18.1965 -84.6559 321° Northwest  Level FlightAware Approximate
04:07AM 18.2876 -84.7328 321° Northwest  Level FlightAware Approximate
04:08AM 18.3787 -84.8099 321° Northwest  Level FlightAware Approximate
04:09AM 18.4698 -84.8870 321° Northwest  Level FlightAware Approximate
04:10AM 18.5608 -84.9642 321° Northwest  Level FlightAware Approximate
04:11AM 18.6517 -85.0415 321° Northwest  Level FlightAware Approximate
04:12AM 18.7426 -85.1189 321° Northwest  Level FlightAware Approximate
04:13AM 18.8335 -85.1964 321° Northwest  Level FlightAware Approximate
04:14AM 18.9244 -85.2740 321° Northwest  Level FlightAware Approximate
04:15AM 19.0152 -85.3517 321° Northwest  Level FlightAware Approximate
04:16AM 19.1060 -85.4295 321° Northwest  Level FlightAware Approximate
04:17AM 19.1967 -85.5073 321° Northwest  Level FlightAware Approximate
04:18AM 19.2875 -85.5852 321° Northwest  Level FlightAware Approximate
04:19AM 19.3782 -85.6633 321° Northwest  Level FlightAware Approximate
04:20AM 19.4688 -85.7414 321° Northwest  Level FlightAware Approximate
04:21AM 19.5594 -85.8195 321° Northwest  Level FlightAware Approximate
04:22AM 19.6500 -85.8978 321° Northwest  Level FlightAware Approximate
04:23AM 19.7406 -85.9762 321° Northwest  Level FlightAware Approximate
04:24AM 19.8311 -86.0547 321° Northwest  Level FlightAware Approximate
04:25AM 19.9220 -86.1327 322° Northwest  Level FlightAware Approximate
04:26AM 20.0134 -86.2100 322° Northwest  Level FlightAware Approximate
04:27AM 20.1047 -86.2875 321° Northwest  Level FlightAware Approximate
04:28AM 20.1961 -86.3651 321° Northwest  Level FlightAware Approximate
04:29AM 20.2874 -86.4427 321° Northwest  Level FlightAware Approximate
04:30AM 20.3787 -86.5204 321° Northwest  Level FlightAware Approximate
04:31AM 20.4699 -86.5983 321° Northwest  Level FlightAware Approximate
04:32AM 20.5608 -86.6765 320° Northwest  Level FlightAware Approximate
04:33AM 20.6498 -86.7573 320° Northwest  Level FlightAware Approximate
04:34AM 20.7388 -86.8382 321° Northwest  Level FlightAware Approximate
04:35AM 20.8290 -86.9176 321° Northwest  Level FlightAware Approximate
04:36AM 20.9191 -86.9972 320° Northwest  Level FlightAware Approximate
04:37AM 21.0092 -87.0768 320° Northwest  Level FlightAware Approximate
04:38AM 21.0992 -87.1566 320° Northwest  Level FlightAware Approximate
04:39AM 21.1892 -87.2364 320° Northwest  Level FlightAware Approximate
04:40AM 21.2792 -87.3163 320° Northwest  Level FlightAware Approximate
04:41AM 21.3691 -87.3963 320° Northwest  Level FlightAware Approximate
04:42AM 21.4590 -87.4765 320° Northwest  Level FlightAware Approximate
04:43AM 21.5486 -87.5570 320° Northwest  Level FlightAware Approximate
04:44AM 21.6381 -87.6377 320° Northwest  Level FlightAware Approximate
04:45AM 21.7276 -87.7185 320° Northwest  Level FlightAware Approximate
04:46AM 21.8167 -87.7990 320° Northwest  Level FlightAware Approximate
04:47AM 21.9058 -87.8797 320° Northwest  Level FlightAware Approximate
04:48AM 21.9949 -87.9605 320° Northwest  Level FlightAware Approximate
04:49AM 22.0839 -88.0414 320° Northwest  Level FlightAware Approximate
04:50AM 22.1735 -88.1215 327° Northwest  Level FlightAware Approximate
04:51AM 22.2709 -88.1904 327° Northwest  Level FlightAware Approximate
04:52AM 22.3682 -88.2593 327° Northwest  Level FlightAware Approximate
04:53AM 22.4656 -88.3284 327° Northwest  Level FlightAware Approximate
04:54AM 22.5629 -88.3975 327° Northwest  Level FlightAware Approximate
04:55AM 22.6601 -88.4668 327° Northwest  Level FlightAware Approximate
04:56AM 22.7560 -88.5383 325° Northwest  Level FlightAware Approximate
04:57AM 22.8514 -88.6105 325° Northwest  Level FlightAware Approximate
04:58AM 22.9469 -88.6829 325° Northwest  Level FlightAware Approximate
04:59AM 23.0422 -88.7553 325° Northwest  Level FlightAware Approximate
05:00AM 23.1376 -88.8279 325° Northwest  Level FlightAware Approximate
05:01AM 23.2333 -88.8999 325° Northwest  Level FlightAware Approximate
05:02AM 23.3291 -88.9718 325° Northwest  Level FlightAware Approximate
05:03AM 23.4249 -89.0438 325° Northwest  Level FlightAware Approximate
05:04AM 23.5207 -89.1159 325° Northwest  Level FlightAware Approximate
05:05AM 23.6165 -89.1881 325° Northwest  Level FlightAware Approximate
05:06AM 23.7122 -89.2604 325° Northwest  Level FlightAware Approximate
05:07AM 23.8078 -89.3328 325° Northwest  Level FlightAware Approximate
05:08AM 23.9035 -89.4053 325° Northwest  Level FlightAware Approximate
05:09AM 23.9991 -89.4780 325° Northwest  Level FlightAware Approximate
05:10AM 24.0953 -89.5497 326° Northwest  Level FlightAware Approximate
05:11AM 24.1922 -89.6203 326° Northwest  Level FlightAware Approximate
05:12AM 24.2891 -89.6910 326° Northwest  Level FlightAware Approximate
05:13AM 24.3859 -89.7619 326° Northwest  Level FlightAware Approximate
05:14AM 24.4827 -89.8329 326° Northwest  Level FlightAware Approximate
05:15AM 24.5765 -89.9084 325° Northwest  Level FlightAware Approximate
05:16AM 24.6720 -89.9815 325° Northwest  Level FlightAware Approximate
05:17AM 24.7676 -90.0547 325° Northwest  Level FlightAware Approximate
05:18AM 24.8631 -90.1280 325° Northwest  Level FlightAware Approximate
05:19AM 24.9585 -90.2014 325° Northwest  Level FlightAware Approximate
05:20AM 25.0540 -90.2748 325° Northwest  Level FlightAware Approximate
05:21AM 25.1495 -90.3482 325° Northwest  Level FlightAware Approximate
05:22AM 25.2450 -90.4217 325° Northwest  Level FlightAware Approximate
05:23AM 25.3405 -90.4954 325° Northwest  Level FlightAware Approximate
05:24AM 25.4359 -90.5692 325° Northwest  Level FlightAware Approximate
05:25AM 25.5313 -90.6430 325° Northwest  Level FlightAware Approximate
05:26AM 25.6266 -90.7170 325° Northwest  Level FlightAware Approximate
05:27AM 25.7220 -90.7912 325° Northwest  Level FlightAware Approximate
05:28AM 25.8172 -90.8654 325° Northwest  Level FlightAware Approximate
05:29AM 25.9125 -90.9398 325° Northwest  Level FlightAware Approximate
05:30AM 26.0076 -91.0142 325° Northwest  Level FlightAware Approximate
05:31AM 26.1028 -91.0888 325° Northwest  Level FlightAware Approximate
05:32AM 26.1979 -91.1636 325° Northwest  Level FlightAware Approximate
05:33AM 26.2930 -91.2384 325° Northwest  Level FlightAware Approximate
05:33AM 26.5833 -91.4850 325° Northwest 471 542 38,000  Level Houston Center
05:34AM 26.3880 -91.3133 325° Northwest  Level FlightAware Approximate
05:34AM 26.6786 -91.5531 327° Northwest 428 493 38,000  Level Houston Center
05:35AM 26.4830 -91.3884 325° Northwest  Level FlightAware Approximate
05:35AM 26.7686 -91.6389 320° Northwest 425 489 38,000  Level Houston Center
05:36AM 26.5791 -91.4644 325° Northwest  Level FlightAware Approximate
05:36AM 26.8514 -91.7225 318° Northwest 431 496 37,900  Level Houston Center
05:37AM 26.6750 -91.5406 325° Northwest  Level FlightAware Approximate
05:37AM 26.9422 -91.8114 319° Northwest 433 498 37,900  Level Houston Center
05:38AM 26.7709 -91.6169 325° Northwest  Level FlightAware Approximate
05:38AM 27.0319 -91.9025 318° Northwest 435 501 38,000  Level Houston Center
05:39AM 27.1214 -91.9925 318° Northwest 434 499 37,900  Descending Houston Center
05:40AM 27.2106 -92.0811 319° Northwest 430 495 38,000  Climbing Houston Center
05:41AM 27.2992 -92.1689 319° Northwest 427 491 38,000 -60 Level Houston Center
05:42AM 27.3864 -92.2572 318° Northwest 424 488 37,900  Descending Houston Center
05:43AM 27.4736 -92.3436 319° Northwest 420 483 38,000  Climbing Houston Center
05:44AM 27.5603 -92.4353 317° Northwest 424 488 38,000  Level Houston Center
05:45AM 27.6481 -92.5258 318° Northwest 428 493 38,000 -60 Level Houston Center
05:46AM 27.7367 -92.6164 318° Northwest 429 494 37,900  Descending Houston Center
05:47AM 27.8258 -92.7064 318° Northwest 430 495 38,000  Climbing Houston Center
05:48AM 27.9142 -92.7981 317° Northwest 431 496 38,000  Level Houston Center
05:49AM 28.0039 -92.8911 318° Northwest 435 501 38,000  Level Houston Center
05:50AM 28.0931 -92.9839 317° Northwest 436 502 38,000  Level Houston Center
05:51AM 28.2003 -93.0978 317° Northwest 438 504 38,000  Level Houston Center
05:52AM 28.2908 -93.1914 318° Northwest 441 507 38,000  Level Houston Center
05:53AM 28.3742 -93.2814 316° Northwest 439 505 38,000  Level Houston Center
05:54AM 28.4639 -93.3753 317° Northwest 438 504 38,000 -60 Level Houston Center
05:55AM 28.5536 -93.4692 317° Northwest 439 505 37,900 -600 Descending Houston Center
05:56AM 28.6453 -93.5631 318° Northwest 442 509 36,900 -1,020 Descending Houston Center
05:57AM 28.7353 -93.6575 317° Northwest 442 509 35,900 -960 Descending Houston Center
05:58AM 28.8231 -93.7508 317° Northwest 434 499 35,000 -1,500 Descending Houston Center
05:59AM 28.9153 -93.8511 316° Northwest 430 495 32,900 -2,580 Descending Houston Center
06:00AM 28.9975 -93.9386 317° Northwest 432 497 29,800 -3,120 Descending Houston Center
06:01AM 29.0872 -94.0333 317° Northwest 439 505 26,700 -2,940 Descending Houston Center
06:02AM 29.1750 -94.1281 317° Northwest 437 503 24,000 -2,940 Descending Houston Center
06:03AM 29.2331 -94.1925 316° Northwest 422 486 22,100 -2,700 Descending Houston Center
06:03AM 29.2597 -94.2169 321° Northwest 422 486 21,300 -2,460 Descending Houston Center
06:04AM 29.3200 -94.2842 316° Northwest 397 457 19,400 -2,640 Descending Houston Center
06:04AM 29.3400 -94.3039 319° Northwest 407 468 18,700 -2,820 Descending Houston Center
06:05AM 29.4097 -94.3806 316° Northwest 384 442 16,300 -2,820 Descending Houston Center
06:06AM 29.4894 -94.4661 317° Northwest 385 443 13,700 -2,580 Descending Houston Center
06:06AM 29.5347 -94.5181 315° West 386 444 12,100 -2,280 Descending Houston Center
06:07AM 29.5731 -94.5547 320° Northwest 385 443 10,900 -1,560 Descending Houston Center
06:08AM 29.6167 -94.6061 314° West 373 429 10,400 -840 Descending Houston Center
06:08AM 29.6453 -94.6342 320° Northwest 371 427 10,100 -900 Descending Houston Center
06:08AM 29.6753 -94.6683 315° West 302 348 9,600 -1,200 Descending Houston Center
06:09AM 29.7044 -94.6981 318° Northwest 304 350 8,900 -1,620 Descending Houston Center
06:10AM 29.7364 -94.7353 315° West 302 348 8,000 -1,620 Descending Houston Center
06:10AM 29.7653 -94.7639 319° Northwest 303 349 7,300 -1,440 Descending Houston Center
06:11AM 29.8256 -94.8300 316° Northwest 295 339 6,000 -780 Descending Houston Center
06:12AM 29.8772 -94.8886 315° West 242 278 5,900 -600 Descending Houston Center
06:13AM 29.9219 -94.9386 316° Northwest 246 283 4,900 -960 Descending Houston Center
06:13AM 29.9353 -94.9503 323° Northwest 244 281 4,800 -720 Descending Houston Center
06:14AM 29.9617 -94.9817 314° West 210 242 4,300 -840 Descending Houston Center
06:14AM 29.9761 -94.9997 313° West 220 253 4,000 -360 Descending Houston Center
06:15AM 29.9769 -95.0331 272° West 195 224 4,000 -120 Level Houston Center
06:15AM 29.9783 -95.0625 273° West 196 226 3,900 -600 Descending Houston Center
06:16AM 29.9761 -95.0908 265° West 190 219 3,500 -900 Descending Houston Center
06:16AM 29.9781 -95.1219 274° West 188 216 3,000 -900 Descending Houston Center
06:17AM 29.9772 -95.1486 268° West 181 208 2,600 -960 Descending Houston Center